Aviation Digital Data Service (ADDS)

Output produced by METARs form (1628 UTC 23 September 2020)
found at http://aviationweather.gov/metar/data/
 
KMLU 231621Z 07008KT 3SM RA BR BKN004 OVC020 19/19 A2994 RMK AO2 P0029 T01940189
KMLU 231605Z 07009KT 1 1/4SM +RA BR BKN004 OVC016 19/19 A2994 RMK AO2 P0017 T01940189
KMLU 231553Z 07007KT 1 1/4SM +RA BR BKN005 OVC018 19/18 A2995 RMK AO2 SLP139 P0038 T01940183
KMLU 231534Z 07007KT 1 1/2SM +RA BR BKN005 OVC013 19/18 A2995 RMK AO2 P0013 T01940183
KMLU 231143Z 2312/2412 05006KT 5SM -RA BR BKN005 OVC012 
     TEMPO 2312/2315 2SM +SHRA BR OVC004 
     FM231500 05010KT 2SM +SHRA BR OVC010 
     FM232100 04012KT 2SM -DZ BR OVC004 
     FM240300 04013KT 1 1/2SM BR OVC004 
     FM240900 02013KT 4SM BR OVC007